createdAt,value
2019-02-04T00:00:09.745Z,3.65
2019-02-04T00:01:09.995Z,3.58
2019-02-04T00:02:09.953Z,3.58
2019-02-04T00:03:10.091Z,3.58
2019-02-04T00:04:09.725Z,3.45
2019-02-04T00:05:09.707Z,3.62
2019-02-04T00:06:09.942Z,3.55
2019-02-04T00:07:11.746Z,3.5
2019-02-04T00:08:09.903Z,3.51
2019-02-04T00:09:09.688Z,3.5
2019-02-04T00:10:09.669Z,3.45
2019-02-04T00:11:09.640Z,3.42
2019-02-04T00:12:09.862Z,3.44
2019-02-04T00:13:09.890Z,3.37
2019-02-04T00:14:09.846Z,3.36
2019-02-04T00:15:10.383Z,3.37
2019-02-04T00:16:09.831Z,3.34
2019-02-04T00:17:09.317Z,3.29
2019-02-04T00:18:09.798Z,3.26
2019-02-04T00:19:09.811Z,3.28
2019-02-04T00:20:09.806Z,3.22
2019-02-04T00:21:09.575Z,3.28
2019-02-04T00:22:09.767Z,3.26
2019-02-04T00:23:09.992Z,3.31
2019-02-04T00:24:09.261Z,3.25
2019-02-04T00:25:09.522Z,3.25
2019-02-04T00:26:09.630Z,3.26
2019-02-04T00:27:09.198Z,3.23
2019-02-04T00:28:09.508Z,3.28
2019-02-04T00:29:09.540Z,3.28
2019-02-04T00:30:09.699Z,3.28
2019-02-04T00:31:10.113Z,3.28
2019-02-04T00:32:09.486Z,3.26
2019-02-04T00:33:11.262Z,3.26
2019-02-04T00:34:09.650Z,3.29
2019-02-04T00:35:09.378Z,3.25
2019-02-04T00:36:09.365Z,3.28
2019-02-04T00:37:09.355Z,3.23
2019-02-04T00:38:09.294Z,3.23
2019-02-04T00:39:09.631Z,3.21
2019-02-04T00:40:09.351Z,3.08
2019-02-04T00:41:09.076Z,3.16
2019-02-04T00:42:09.301Z,3.13
2019-02-04T00:43:09.592Z,3.05
2019-02-04T00:44:09.355Z,3.08
2019-02-04T00:45:09.293Z,3.07
2019-02-04T00:46:09.537Z,2.97
2019-02-04T00:47:09.254Z,3.03
2019-02-04T00:48:09.543Z,3.01
2019-02-04T00:49:09.522Z,2.97
2019-02-04T00:50:08.971Z,2.9
2019-02-04T00:51:09.242Z,2.87
2019-02-04T00:52:09.467Z,2.89
2019-02-04T00:53:09.341Z,2.9
2019-02-04T00:54:09.782Z,2.87
2019-02-04T00:55:09.165Z,2.93
2019-02-04T00:56:09.192Z,2.87
2019-02-04T00:57:09.406Z,2.86
2019-02-04T00:58:09.399Z,2.86
2019-02-04T00:59:08.888Z,2.89
2019-02-04T01:00:09.359Z,2.87
2019-02-04T01:01:09.355Z,2.92
2019-02-04T01:02:10.011Z,2.87
2019-02-04T01:03:09.082Z,2.87
2019-02-04T01:04:09.165Z,2.9
2019-02-04T01:05:09.322Z,2.86
2019-02-04T01:06:09.071Z,2.79
2019-02-04T01:07:09.040Z,2.87
2019-02-04T01:08:09.064Z,2.8
2019-02-04T01:09:08.803Z,2.82
2019-02-04T01:10:09.531Z,2.8
2019-02-04T01:11:09.002Z,2.83
2019-02-04T01:12:09.233Z,2.83
2019-02-04T01:13:09.221Z,2.87
2019-02-04T01:14:08.842Z,2.8
2019-02-04T01:15:09.202Z,2.95
2019-02-04T01:16:09.192Z,2.89
2019-02-04T01:17:08.931Z,2.92
2019-02-04T01:18:09.160Z,2.93
2019-02-04T01:19:09.203Z,2.95
2019-02-04T01:20:09.162Z,2.92
2019-02-04T01:21:08.882Z,2.98
2019-02-04T01:22:08.871Z,2.95
2019-02-04T01:23:09.107Z,2.89
2019-02-04T01:24:08.855Z,2.98
2019-02-04T01:25:08.855Z,3.03
2019-02-04T01:26:08.956Z,2.93
2019-02-04T01:27:09.070Z,2.98
2019-02-04T01:28:08.584Z,2.9
2019-02-04T01:29:08.568Z,3.01
2019-02-04T01:30:08.800Z,3
2019-02-04T01:31:08.543Z,2.89
2019-02-04T01:32:09.026Z,2.92
2019-02-04T01:33:08.768Z,3.01
2019-02-04T01:34:09.213Z,2.92
2019-02-04T01:35:09.015Z,2.89
2019-02-04T01:36:09.014Z,2.97
2019-02-04T01:37:09.052Z,3
2019-02-04T01:38:08.720Z,2.93
2019-02-04T01:39:08.942Z,2.86
2019-02-04T01:40:08.681Z,2.9
2019-02-04T01:41:08.690Z,2.89
2019-02-04T01:42:09.254Z,2.93
2019-02-04T01:43:08.894Z,3.01
2019-02-04T01:44:08.662Z,2.93
2019-02-04T01:45:08.888Z,2.97
2019-02-04T01:46:08.626Z,2.95
2019-02-04T01:47:18.630Z,2.82
2019-02-04T01:48:08.602Z,2.89
2019-02-04T01:49:08.721Z,2.87
2019-02-04T01:50:09.111Z,2.85
2019-02-04T01:51:08.558Z,2.89
2019-02-04T01:52:08.829Z,2.82
2019-02-04T01:53:08.319Z,2.77
2019-02-04T01:54:08.780Z,2.9
2019-02-04T01:55:08.780Z,2.87
2019-02-04T01:56:08.513Z,2.92
2019-02-04T01:57:08.947Z,2.93
2019-02-04T01:58:08.727Z,2.93
2019-02-04T01:59:08.726Z,3.01
2019-02-04T02:00:08.738Z,2.93
2019-02-04T02:01:08.700Z,2.92
2019-02-04T02:02:08.214Z,2.87
2019-02-04T02:03:08.454Z,2.9
2019-02-04T02:04:09.748Z,2.9
2019-02-04T02:05:08.626Z,2.8
2019-02-04T02:06:08.661Z,2.79
2019-02-04T02:07:08.399Z,2.87
2019-02-04T02:08:08.638Z,2.75
2019-02-04T02:09:08.371Z,2.83
2019-02-04T02:10:08.633Z,2.79
2019-02-04T02:11:08.349Z,2.8
2019-02-04T02:12:08.608Z,2.89
2019-02-04T02:13:08.653Z,2.87
2019-02-04T02:14:08.565Z,2.87
2019-02-04T02:15:08.322Z,2.77
2019-02-04T02:16:08.553Z,2.83
2019-02-04T02:17:08.292Z,2.86
2019-02-04T02:18:08.315Z,2.86
2019-02-04T02:19:08.532Z,2.87
2019-02-04T02:20:08.527Z,2.83
2019-02-04T02:21:08.515Z,2.85
2019-02-04T02:22:08.247Z,2.92
2019-02-04T02:23:08.466Z,2.82
2019-02-04T02:24:08.456Z,2.8
2019-02-04T02:25:08.215Z,2.85
2019-02-04T02:26:08.497Z,2.87
2019-02-04T02:27:08.433Z,2.74
2019-02-04T02:28:08.429Z,2.9
2019-02-04T02:29:08.647Z,2.8
2019-02-04T02:30:07.928Z,2.87
2019-02-04T02:31:08.400Z,2.87
2019-02-04T02:32:08.384Z,2.86
2019-02-04T02:33:08.400Z,2.87
2019-02-04T02:34:08.099Z,2.86
2019-02-04T02:35:08.359Z,2.79
2019-02-04T02:36:08.331Z,2.82
2019-02-04T02:37:08.995Z,2.75
2019-02-04T02:38:08.351Z,2.82
2019-02-04T02:39:08.349Z,2.85
2019-02-04T02:40:08.051Z,2.8
2019-02-04T02:41:08.059Z,2.83
2019-02-04T02:42:08.289Z,2.82
2019-02-04T02:43:11.402Z,2.8
2019-02-04T02:44:08.256Z,2.71
2019-02-04T02:45:08.218Z,2.77
2019-02-04T02:46:08.241Z,2.71
2019-02-04T02:47:08.229Z,2.77
2019-02-04T02:48:08.208Z,2.69
2019-02-04T02:49:07.974Z,2.74
2019-02-04T02:50:08.183Z,2.75
2019-02-04T02:51:08.217Z,2.79
2019-02-04T02:52:08.394Z,2.67
2019-02-04T02:53:08.165Z,2.67
2019-02-04T02:54:08.155Z,2.72
2019-02-04T02:55:08.057Z,2.67
2019-02-04T02:56:08.282Z,2.77
2019-02-04T02:57:07.874Z,2.61
2019-02-04T02:58:07.882Z,2.64
2019-02-04T02:59:08.096Z,2.64
2019-02-04T03:00:08.172Z,2.6
2019-02-04T03:01:07.835Z,2.61
2019-02-04T03:02:08.079Z,2.6
2019-02-04T03:03:08.061Z,2.5
2019-02-04T03:04:07.781Z,2.53
2019-02-04T03:05:08.052Z,2.6
2019-02-04T03:06:08.028Z,2.5
2019-02-04T03:07:07.762Z,2.44
2019-02-04T03:08:08.536Z,2.42
2019-02-04T03:09:07.820Z,2.43
2019-02-04T03:10:07.981Z,2.42
2019-02-04T03:11:07.472Z,2.33
2019-02-04T03:12:07.967Z,2.32
2019-02-04T03:13:07.963Z,2.39
2019-02-04T03:14:07.435Z,2.29
2019-02-04T03:15:07.442Z,2.38
2019-02-04T03:16:08.283Z,2.28
2019-02-04T03:17:07.665Z,2.2
2019-02-04T03:18:07.688Z,2.2
2019-02-04T03:19:07.631Z,2.13
2019-02-04T03:20:07.641Z,2.15
2019-02-04T03:21:07.421Z,2.15
2019-02-04T03:22:07.652Z,2.24
2019-02-04T03:23:07.618Z,2.11
2019-02-04T03:24:07.849Z,2.06
2019-02-04T03:25:07.876Z,2.08
2019-02-04T03:26:07.800Z,2.06
2019-02-04T03:27:07.345Z,2.06
2019-02-04T03:28:07.476Z,2.08
2019-02-04T03:29:07.809Z,2.06
2019-02-04T03:30:07.536Z,2.02
2019-02-04T03:31:07.804Z,1.94
2019-02-04T03:32:08.353Z,1.91
2019-02-04T03:33:07.809Z,1.94
2019-02-04T03:34:07.715Z,1.89
2019-02-04T03:35:07.729Z,1.8
2019-02-04T03:36:07.734Z,1.84
2019-02-04T03:37:07.439Z,1.74
2019-02-04T03:38:07.450Z,1.81
2019-02-04T03:39:07.700Z,1.8
2019-02-04T03:40:08.121Z,1.74
2019-02-04T03:41:07.643Z,1.8
2019-02-04T03:42:07.643Z,1.77
2019-02-04T03:43:07.392Z,1.77
2019-02-04T03:44:07.376Z,1.8
2019-02-04T03:45:07.594Z,1.76
2019-02-04T03:46:07.089Z,1.76
2019-02-04T03:47:07.567Z,1.77
2019-02-04T03:48:14.045Z,1.78
2019-02-04T03:49:07.547Z,1.76
2019-02-04T03:50:07.304Z,1.73
2019-02-04T03:51:07.275Z,1.67
2019-02-04T03:52:07.339Z,1.62
2019-02-04T03:53:07.272Z,1.58
2019-02-04T03:54:07.490Z,1.56
2019-02-04T03:55:07.295Z,1.53
2019-02-04T03:56:07.818Z,1.53
2019-02-04T03:57:07.206Z,1.48
2019-02-04T03:58:06.945Z,1.42
2019-02-04T03:59:07.195Z,1.42
2019-02-04T04:00:07.209Z,1.42
2019-02-04T04:01:07.157Z,1.48
2019-02-04T04:02:07.149Z,1.4
2019-02-04T04:03:07.383Z,1.4
2019-02-04T04:04:07.571Z,1.45
2019-02-04T04:05:06.894Z,1.48
2019-02-04T04:06:07.339Z,1.48
2019-02-04T04:07:07.139Z,1.4
2019-02-04T04:08:07.360Z,1.34
2019-02-04T04:09:06.834Z,1.24
2019-02-04T04:10:07.309Z,1.31
2019-02-04T04:11:07.043Z,1.26
2019-02-04T04:12:07.259Z,1.22
2019-02-04T04:13:06.767Z,1.23
2019-02-04T04:14:07.035Z,1.2
2019-02-04T04:15:07.020Z,1.16
2019-02-04T04:16:07.241Z,1.16
2019-02-04T04:17:07.225Z,1.16
2019-02-04T04:18:17.908Z,1.14
2019-02-04T04:19:07.212Z,1.08
2019-02-04T04:20:07.234Z,1.08
2019-02-04T04:21:06.678Z,0.96
2019-02-04T04:22:06.900Z,1.02
2019-02-04T04:23:07.161Z,1.04
2019-02-04T04:24:07.140Z,0.98
2019-02-04T04:25:07.121Z,0.98
2019-02-04T04:26:06.617Z,0.98
2019-02-04T04:27:07.178Z,0.88
2019-02-04T04:28:06.654Z,0.86
2019-02-04T04:29:06.571Z,0.88
2019-02-04T04:30:06.821Z,0.78
2019-02-04T04:31:06.808Z,0.74
2019-02-04T04:32:07.033Z,0.77
2019-02-04T04:33:07.352Z,0.77
2019-02-04T04:34:07.023Z,0.73
2019-02-04T04:35:07.246Z,0.7
2019-02-04T04:36:06.975Z,0.68
2019-02-04T04:37:06.986Z,0.73
2019-02-04T04:38:06.774Z,0.7
2019-02-04T04:39:07.035Z,0.73
2019-02-04T04:40:06.446Z,0.78
2019-02-04T04:41:06.927Z,0.74
2019-02-04T04:42:06.431Z,0.8
2019-02-04T04:43:07.483Z,0.77
2019-02-04T04:44:06.667Z,0.88
2019-02-04T04:45:06.900Z,0.88
2019-02-04T04:46:06.635Z,0.84
2019-02-04T04:47:06.625Z,0.83
2019-02-04T04:48:06.342Z,0.84
2019-02-04T04:49:06.348Z,0.81
2019-02-04T04:50:06.569Z,0.86
2019-02-04T04:51:06.944Z,0.84
2019-02-04T04:52:06.641Z,0.83
2019-02-04T04:53:06.805Z,0.84
2019-02-04T04:54:06.757Z,0.84
2019-02-04T04:55:06.758Z,0.86
2019-02-04T04:56:06.239Z,0.78
2019-02-04T04:57:06.571Z,0.73
2019-02-04T04:58:06.248Z,0.7
2019-02-04T04:59:06.890Z,0.69
2019-02-04T05:00:06.702Z,0.7
2019-02-04T05:01:06.697Z,0.7
2019-02-04T05:02:06.435Z,0.65
2019-02-04T05:03:06.779Z,0.66
2019-02-04T05:04:06.463Z,0.59
2019-02-04T05:05:06.437Z,0.68
2019-02-04T05:06:06.711Z,0.62
2019-02-04T05:07:06.745Z,0.7
2019-02-04T05:08:06.628Z,0.59
2019-02-04T05:09:06.324Z,0.68
2019-02-04T05:10:06.316Z,0.65
2019-02-04T05:11:06.658Z,0.58
2019-02-04T05:12:06.290Z,0.56
2019-02-04T05:13:06.356Z,0.52
2019-02-04T05:14:06.679Z,0.62
2019-02-04T05:15:06.007Z,0.66
2019-02-04T05:16:06.523Z,0.68
2019-02-04T05:17:06.471Z,0.62
2019-02-04T05:18:06.475Z,0.7
2019-02-04T05:19:06.207Z,0.7
2019-02-04T05:20:06.446Z,0.66
2019-02-04T05:21:05.920Z,0.69
2019-02-04T05:22:06.539Z,0.62
2019-02-04T05:23:06.148Z,0.62
2019-02-04T05:24:06.149Z,0.55
2019-02-04T05:25:05.886Z,0.73
2019-02-04T05:26:06.366Z,0.59
2019-02-04T05:27:06.092Z,0.63
2019-02-04T05:28:06.333Z,0.59
2019-02-04T05:29:06.074Z,0.65
2019-02-04T05:30:06.639Z,0.62
2019-02-04T05:31:05.857Z,0.6
2019-02-04T05:32:06.305Z,0.56
2019-02-04T05:33:06.287Z,0.52
2019-02-04T05:34:06.079Z,0.5
2019-02-04T05:35:06.073Z,0.49
2019-02-04T05:36:06.259Z,0.52
2019-02-04T05:37:05.748Z,0.47
2019-02-04T05:38:06.639Z,0.5
2019-02-04T05:39:05.736Z,0.52
2019-02-04T05:40:06.177Z,0.46
2019-02-04T05:41:05.678Z,0.49
2019-02-04T05:42:05.664Z,0.52
2019-02-04T05:43:06.334Z,0.58
2019-02-04T05:44:05.890Z,0.5
2019-02-04T05:45:05.634Z,0.58
2019-02-04T05:46:06.124Z,0.55
2019-02-04T05:47:05.868Z,0.55
2019-02-04T05:48:05.903Z,0.49
2019-02-04T05:49:06.050Z,0.55
2019-02-04T05:50:05.879Z,0.55
2019-02-04T05:51:06.079Z,0.55
2019-02-04T05:52:06.135Z,0.55
2019-02-04T05:53:05.511Z,0.52
2019-02-04T05:54:06.563Z,0.52
2019-02-04T05:55:05.768Z,0.46
2019-02-04T05:56:06.002Z,0.5
2019-02-04T05:57:05.722Z,0.52
2019-02-04T05:58:05.962Z,0.49
2019-02-04T05:59:05.937Z,0.5
2019-02-04T06:00:05.957Z,0.55
2019-02-04T06:01:05.908Z,0.44
2019-02-04T06:02:06.253Z,0.44
2019-02-04T06:03:05.922Z,0.4
2019-02-04T06:04:05.869Z,0.39
2019-02-04T06:05:05.864Z,0.32
2019-02-04T06:06:05.629Z,0.28
2019-02-04T06:07:05.835Z,0.25
2019-02-04T06:08:05.333Z,0.23
2019-02-04T06:09:05.380Z,0.22
2019-02-04T06:10:05.964Z,0.25
2019-02-04T06:11:05.281Z,0.15
2019-02-04T06:12:05.774Z,0.08
2019-02-04T06:13:05.517Z,0.15
2019-02-04T06:14:05.501Z,0.05
2019-02-04T06:15:05.287Z,0.03
2019-02-04T06:16:05.269Z,0.12
2019-02-04T06:17:05.734Z,-0.03
2019-02-04T06:18:05.719Z,0.12
2019-02-04T06:19:06.089Z,0.1
2019-02-04T06:20:07.753Z,0.05
2019-02-04T06:21:05.696Z,0.12
2019-02-04T06:22:05.683Z,0.05
2019-02-04T06:23:05.400Z,0.05
2019-02-04T06:24:05.418Z,0.07
2019-02-04T06:25:05.425Z,0.01
2019-02-04T06:26:05.422Z,0.15
2019-02-04T06:27:05.577Z,0.1
2019-02-04T06:28:05.589Z,0.15
2019-02-04T06:29:05.333Z,0.16
2019-02-04T06:30:05.356Z,0.23
2019-02-04T06:31:05.311Z,0.19
2019-02-04T06:32:05.302Z,0.19
2019-02-04T06:33:05.489Z,0.34
2019-02-04T06:34:05.349Z,0.22
2019-02-04T06:35:05.548Z,0.34
2019-02-04T06:36:05.036Z,0.25
2019-02-04T06:37:04.961Z,0.39
2019-02-04T06:38:05.488Z,0.32
2019-02-04T06:39:04.932Z,0.37
2019-02-04T06:40:05.301Z,0.4
2019-02-04T06:41:05.961Z,0.47
2019-02-04T06:42:05.403Z,0.43
2019-02-04T06:43:05.369Z,0.39
2019-02-04T06:44:04.870Z,0.37
2019-02-04T06:45:05.459Z,0.46
2019-02-04T06:46:05.083Z,0.44
2019-02-04T06:47:05.072Z,0.47
2019-02-04T06:48:05.070Z,0.5
2019-02-04T06:49:16.748Z,0.46
2019-02-04T06:50:05.340Z,0.52
2019-02-04T06:51:05.287Z,0.59
2019-02-04T06:52:05.283Z,0.63
2019-02-04T06:53:05.003Z,0.6
2019-02-04T06:54:04.991Z,0.65
2019-02-04T06:55:04.998Z,0.65
2019-02-04T06:56:05.212Z,0.65
2019-02-04T06:57:06.056Z,0.66
2019-02-04T06:58:04.929Z,0.63
2019-02-04T06:59:05.169Z,0.68
2019-02-04T07:00:05.008Z,0.6
2019-02-04T07:01:04.894Z,0.55
2019-02-04T07:02:05.131Z,0.58
2019-02-04T07:03:05.170Z,0.59
2019-02-04T07:04:05.352Z,0.49
2019-02-04T07:05:05.095Z,0.52
2019-02-04T07:06:05.080Z,0.49
2019-02-04T07:07:05.931Z,0.47
2019-02-04T07:08:04.902Z,0.47
2019-02-04T07:09:04.849Z,0.58
2019-02-04T07:10:04.588Z,0.55
2019-02-04T07:11:04.758Z,0.5
2019-02-04T07:12:05.450Z,0.62
2019-02-04T07:13:04.763Z,0.65
2019-02-04T07:14:04.980Z,0.56
2019-02-04T07:15:05.034Z,0.65
2019-02-04T07:16:04.494Z,0.69
2019-02-04T07:17:04.451Z,0.76
2019-02-04T07:18:06.734Z,0.76
2019-02-04T07:19:04.670Z,0.78
2019-02-04T07:20:05.458Z,0.86
2019-02-04T07:21:04.905Z,0.86
2019-02-04T07:22:04.622Z,0.92
2019-02-04T07:23:04.544Z,0.98
2019-02-04T07:24:04.600Z,0.95
2019-02-04T07:25:04.622Z,1.16
2019-02-04T07:26:04.336Z,1.38
2019-02-04T07:27:04.694Z,1.52
2019-02-04T07:28:04.553Z,1.77
2019-02-04T07:29:04.581Z,2.14
2019-02-04T07:30:04.546Z,2.46
2019-02-04T07:31:04.530Z,2.82
2019-02-04T07:32:04.252Z,3.32
2019-02-04T07:33:04.241Z,3.6
2019-02-04T07:34:04.237Z,3.91
2019-02-04T07:35:05.120Z,4.06
2019-02-04T07:36:06.006Z,4.31
2019-02-04T07:37:04.742Z,4.53
2019-02-04T07:38:04.217Z,4.59
2019-02-04T07:39:04.441Z,4.67
2019-02-04T07:40:04.689Z,4.86
2019-02-04T07:41:04.669Z,5.02
2019-02-04T07:42:04.684Z,5.15
2019-02-04T07:43:04.729Z,5.28
2019-02-04T07:44:04.636Z,5.32
2019-02-04T07:45:04.620Z,5.29
2019-02-04T07:46:04.374Z,5.38
2019-02-04T07:47:04.382Z,5.46
2019-02-04T07:48:04.594Z,5.44
2019-02-04T07:49:04.330Z,5.43
2019-02-04T07:50:04.578Z,5.41
2019-02-04T07:51:04.955Z,5.05
2019-02-04T07:52:04.309Z,4.94
2019-02-04T07:53:04.548Z,4.62
2019-02-04T07:54:04.572Z,4.44
2019-02-04T07:55:04.546Z,4.12
2019-02-04T07:56:04.534Z,3.83
2019-02-04T07:57:04.517Z,3.53
2019-02-04T07:58:04.430Z,3.21
2019-02-04T07:59:04.807Z,3.14
2019-02-04T08:00:04.490Z,2.93
2019-02-04T08:01:04.469Z,2.83
2019-02-04T08:02:04.209Z,2.75
2019-02-04T08:03:04.444Z,2.71
2019-02-04T08:04:04.444Z,2.61
2019-02-04T08:05:04.454Z,2.51
2019-02-04T08:06:04.584Z,2.49
2019-02-04T08:07:04.177Z,2.39
2019-02-04T08:08:04.409Z,2.44
2019-02-04T08:09:04.406Z,2.44
2019-02-04T08:10:04.386Z,2.33
2019-02-04T08:11:04.376Z,2.33
2019-02-04T08:12:04.364Z,2.26
2019-02-04T08:13:06.839Z,2.31
2019-02-04T08:14:04.823Z,2.25
2019-02-04T08:15:04.349Z,2.24
2019-02-04T08:16:04.320Z,2.28
2019-02-04T08:17:04.312Z,2.49
2019-02-04T08:18:03.817Z,2.69
2019-02-04T08:19:04.306Z,3.23
2019-02-04T08:20:04.022Z,3.88
2019-02-04T08:21:04.257Z,4.28
2019-02-04T08:22:04.605Z,4.82
2019-02-04T08:23:05.042Z,5.26
2019-02-04T08:24:04.024Z,5.48
2019-02-04T08:25:04.247Z,5.91
2019-02-04T08:26:04.219Z,6.07
2019-02-04T08:27:04.317Z,6.12
2019-02-04T08:28:03.963Z,6.11
2019-02-04T08:29:04.194Z,6.17
2019-02-04T08:30:04.529Z,6.05
2019-02-04T08:31:03.927Z,5.66
2019-02-04T08:32:04.182Z,5.36
2019-02-04T08:33:04.168Z,5.07
2019-02-04T08:34:04.173Z,4.66
2019-02-04T08:35:03.913Z,4.35
2019-02-04T08:36:04.177Z,4.19
2019-02-04T08:37:04.402Z,3.84
2019-02-04T08:38:04.032Z,3.74
2019-02-04T08:39:04.125Z,3.63
2019-02-04T08:40:03.660Z,3.53
2019-02-04T08:41:03.869Z,3.42
2019-02-04T08:42:04.098Z,3.36
2019-02-04T08:43:04.114Z,3.21
2019-02-04T08:44:04.070Z,3.11
2019-02-04T08:45:04.756Z,3.14
2019-02-04T08:46:03.823Z,3.14
2019-02-04T08:47:04.050Z,3.13
2019-02-04T08:48:04.169Z,3.13
2019-02-04T08:49:03.834Z,3.05
2019-02-04T08:50:06.523Z,2.98
2019-02-04T08:51:04.014Z,2.95
2019-02-04T08:52:04.261Z,3.04
2019-02-04T08:53:03.777Z,2.97
2019-02-04T08:54:04.003Z,3.07
2019-02-04T08:55:03.741Z,3.11
2019-02-04T08:56:03.745Z,3.08
2019-02-04T08:57:03.712Z,3.1
2019-02-04T08:58:03.773Z,3.13
2019-02-04T08:59:03.945Z,3.21
2019-02-04T09:00:04.428Z,3.05
2019-02-04T09:01:03.919Z,3.07
2019-02-04T09:02:03.909Z,3.11
2019-02-04T09:03:03.665Z,3.05
2019-02-04T09:04:03.659Z,3.1
2019-02-04T09:05:03.896Z,3.14
2019-02-04T09:06:03.876Z,3.13
2019-02-04T09:07:04.080Z,3.23
2019-02-04T09:08:03.862Z,3.25
2019-02-04T09:09:03.852Z,3.22
2019-02-04T09:10:03.828Z,3.23
2019-02-04T09:11:03.819Z,3.22
2019-02-04T09:12:03.808Z,3.23
2019-02-04T09:13:03.808Z,3.21
2019-02-04T09:14:03.536Z,3.34
2019-02-04T09:15:03.796Z,3.44
2019-02-04T09:16:03.770Z,3.41
2019-02-04T09:17:03.756Z,3.5
2019-02-04T09:18:03.749Z,3.41
2019-02-04T09:19:03.489Z,3.53
2019-02-04T09:20:14.575Z,3.45
2019-02-04T09:21:03.742Z,3.48
2019-02-04T09:22:03.718Z,3.68
2019-02-04T09:23:05.961Z,3.63
2019-02-04T09:24:03.424Z,3.62
2019-02-04T09:25:03.676Z,3.6
2019-02-04T09:26:03.446Z,3.65
2019-02-04T09:27:03.652Z,3.74
2019-02-04T09:28:03.657Z,3.69
2019-02-04T09:29:03.666Z,3.74
2019-02-04T09:30:04.300Z,3.78
2019-02-04T09:31:03.356Z,3.87
2019-02-04T09:32:03.624Z,3.88
2019-02-04T09:33:03.604Z,3.83
2019-02-04T09:34:03.329Z,3.95
2019-02-04T09:35:03.591Z,3.98
2019-02-04T09:36:03.570Z,4.12
2019-02-04T09:37:03.321Z,4.12
2019-02-04T09:38:03.746Z,4.2
2019-02-04T09:39:03.364Z,4.19
2019-02-04T09:40:03.567Z,4.17
2019-02-04T09:41:03.541Z,4.06
2019-02-04T09:42:03.512Z,4.08
2019-02-04T09:43:03.258Z,4.14
2019-02-04T09:44:03.029Z,4.24
2019-02-04T09:45:03.489Z,4.31
2019-02-04T09:46:03.467Z,4.35
2019-02-04T09:47:03.537Z,4.35
2019-02-04T09:48:03.196Z,4.49
2019-02-04T09:49:03.193Z,4.5
2019-02-04T09:50:03.448Z,4.56
2019-02-04T09:51:03.320Z,4.6
2019-02-04T09:52:02.921Z,4.73
2019-02-04T09:53:03.865Z,4.75
2019-02-04T09:54:03.543Z,4.87
2019-02-04T09:55:03.393Z,4.9
2019-02-04T09:56:02.927Z,4.94
2019-02-04T09:57:03.400Z,4.82
2019-02-04T09:58:02.878Z,4.8
2019-02-04T09:59:03.341Z,4.84
2019-02-04T10:00:03.175Z,4.82
2019-02-04T10:01:06.473Z,4.87
2019-02-04T10:02:03.076Z,4.8
2019-02-04T10:03:03.068Z,4.93
2019-02-04T10:04:03.313Z,4.82
2019-02-04T10:05:03.295Z,4.86
2019-02-04T10:06:03.282Z,4.86
2019-02-04T10:07:03.288Z,4.86
2019-02-04T10:08:03.131Z,4.89
2019-02-04T10:09:03.621Z,4.92
2019-02-04T10:10:03.947Z,4.94
2019-02-04T10:11:02.987Z,5
2019-02-04T10:12:03.230Z,4.94
2019-02-04T10:13:03.238Z,4.9
2019-02-04T10:14:02.967Z,4.84
2019-02-04T10:15:02.961Z,4.86
2019-02-04T10:16:03.222Z,4.82
2019-02-04T10:17:03.589Z,4.84
2019-02-04T10:18:03.302Z,4.94
2019-02-04T10:19:03.220Z,4.99
2019-02-04T10:20:02.969Z,4.93
2019-02-04T10:21:02.913Z,4.96
2019-02-04T10:22:02.699Z,5.02
2019-02-04T10:23:03.053Z,5.05
2019-02-04T10:24:02.938Z,5.08
2019-02-04T10:25:03.275Z,5.05
2019-02-04T10:26:03.225Z,5.14
2019-02-04T10:27:02.931Z,5.1
2019-02-04T10:28:03.115Z,5.17
2019-02-04T10:29:03.165Z,5.17
2019-02-04T10:30:02.948Z,5.15
2019-02-04T10:31:03.104Z,5.17
2019-02-04T10:32:03.089Z,5.18
2019-02-04T10:33:03.262Z,5.15
2019-02-04T10:34:03.111Z,5.2
2019-02-04T10:35:02.624Z,5.25
2019-02-04T10:36:03.075Z,5.14
2019-02-04T10:37:03.059Z,5.17
2019-02-04T10:38:02.637Z,5.23
2019-02-04T10:39:02.881Z,5.25
2019-02-04T10:40:03.068Z,5.3
2019-02-04T10:41:02.811Z,5.25
2019-02-04T10:42:03.063Z,5.35
2019-02-04T10:43:02.848Z,5.35
2019-02-04T10:44:02.751Z,5.36
2019-02-04T10:45:02.798Z,5.39
2019-02-04T10:46:04.632Z,5.44
2019-02-04T10:47:02.713Z,5.38
2019-02-04T10:48:03.045Z,5.41
2019-02-04T10:49:02.774Z,5.48
2019-02-04T10:50:02.649Z,5.47
2019-02-04T10:51:02.453Z,5.54
2019-02-04T10:52:02.738Z,5.47
2019-02-04T10:53:02.872Z,5.61
2019-02-04T10:54:02.702Z,5.62
2019-02-04T10:55:02.672Z,5.64
2019-02-04T10:56:03.562Z,5.68
2019-02-04T10:57:02.645Z,5.66
2019-02-04T10:58:02.729Z,5.76
2019-02-04T10:59:02.628Z,5.82
2019-02-04T11:00:03.097Z,5.84
2019-02-04T11:01:02.906Z,5.84
2019-02-04T11:02:02.871Z,5.82
2019-02-04T11:03:03.008Z,5.84
2019-02-04T11:04:02.857Z,5.8
2019-02-04T11:05:02.860Z,5.84
2019-02-04T11:06:02.837Z,5.86
2019-02-04T11:07:02.841Z,5.76
2019-02-04T11:08:02.648Z,5.83
2019-02-04T11:09:03.591Z,5.83
2019-02-04T11:10:02.822Z,5.76
2019-02-04T11:11:02.895Z,5.69
2019-02-04T11:12:02.771Z,5.56
2019-02-04T11:13:02.791Z,5.61
2019-02-04T11:14:02.480Z,5.57
2019-02-04T11:15:02.548Z,5.51
2019-02-04T11:16:02.744Z,5.61
2019-02-04T11:17:02.539Z,5.54
2019-02-04T11:18:02.519Z,5.61
2019-02-04T11:19:02.775Z,5.53
2019-02-04T11:20:02.917Z,5.46
2019-02-04T11:21:03.392Z,5.47
2019-02-04T11:22:02.842Z,5.47
2019-02-04T11:23:02.464Z,5.46
2019-02-04T11:24:02.171Z,5.54
2019-02-04T11:25:02.820Z,5.57
2019-02-04T11:26:02.678Z,5.46
2019-02-04T11:27:03.256Z,5.48
2019-02-04T11:28:02.555Z,5.54
2019-02-04T11:29:02.640Z,5.59
2019-02-04T11:30:02.667Z,5.56
2019-02-04T11:31:02.664Z,5.72
2019-02-04T11:32:02.586Z,5.69
2019-02-04T11:33:02.574Z,5.71
2019-02-04T11:34:02.318Z,5.82
2019-02-04T11:35:03.000Z,5.83
2019-02-04T11:36:02.602Z,5.79
2019-02-04T11:37:02.308Z,5.82
2019-02-04T11:38:02.525Z,5.93
2019-02-04T11:39:03.243Z,5.87
2019-02-04T11:40:02.764Z,5.93
2019-02-04T11:41:02.570Z,5.99
2019-02-04T11:42:02.243Z,5.89
2019-02-04T11:43:02.613Z,5.9
2019-02-04T11:44:02.566Z,5.97
2019-02-04T11:45:02.570Z,5.87
2019-02-04T11:46:02.504Z,5.94
2019-02-04T11:47:02.611Z,5.87
2019-02-04T11:48:02.532Z,5.94
2019-02-04T11:49:02.383Z,5.91
2019-02-04T11:50:01.876Z,5.99
2019-02-04T11:51:13.626Z,5.99
2019-02-04T11:52:02.109Z,5.93
2019-02-04T11:53:02.348Z,5.99
2019-02-04T11:54:01.841Z,6.04
2019-02-04T11:55:02.333Z,6.08
2019-02-04T11:56:02.373Z,6.16
2019-02-04T11:57:02.325Z,6.17
2019-02-04T11:58:02.326Z,6.16
2019-02-04T11:59:02.038Z,6.22
2019-02-04T12:00:02.050Z,6.14
2019-02-04T12:01:02.274Z,6.22
2019-02-04T12:02:02.273Z,6.26
2019-02-04T12:03:02.263Z,6.24
2019-02-04T12:04:01.994Z,6.36
2019-02-04T12:05:02.259Z,6.45
2019-02-04T12:06:02.709Z,6.48
2019-02-04T12:07:02.227Z,6.49
2019-02-04T12:08:01.988Z,6.54
2019-02-04T12:09:02.217Z,6.56
2019-02-04T12:10:02.998Z,6.57
2019-02-04T12:11:02.217Z,6.56
2019-02-04T12:12:01.951Z,6.62
2019-02-04T12:13:01.975Z,6.67
2019-02-04T12:14:02.777Z,6.72
2019-02-04T12:15:01.915Z,6.66
2019-02-04T12:16:01.959Z,6.77
2019-02-04T12:17:03.771Z,6.74
2019-02-04T12:18:02.149Z,6.7
2019-02-04T12:19:01.889Z,6.57
2019-02-04T12:20:01.652Z,6.49
2019-02-04T12:21:01.908Z,6.41
2019-02-04T12:22:05.424Z,6.48
2019-02-04T12:23:02.100Z,6.48
2019-02-04T12:24:02.126Z,6.48
2019-02-04T12:25:01.856Z,6.56
2019-02-04T12:26:02.067Z,6.36
2019-02-04T12:27:01.858Z,6.33
2019-02-04T12:28:02.071Z,6.41
2019-02-04T12:29:02.781Z,6.38
2019-02-04T12:30:02.422Z,6.36
2019-02-04T12:31:01.779Z,6.36
2019-02-04T12:32:01.520Z,6.28
2019-02-04T12:33:02.023Z,6.31
2019-02-04T12:34:02.033Z,6.27
2019-02-04T12:35:01.522Z,6.11
2019-02-04T12:36:04.523Z,6.12
2019-02-04T12:37:02.314Z,6.01
2019-02-04T12:38:01.753Z,5.93
2019-02-04T12:39:01.751Z,5.93
2019-02-04T12:40:01.713Z,5.86
2019-02-04T12:41:01.959Z,5.91
2019-02-04T12:42:01.686Z,5.82
2019-02-04T12:43:01.699Z,5.86
2019-02-04T12:44:01.681Z,5.8
2019-02-04T12:45:02.636Z,5.64
2019-02-04T12:46:01.746Z,5.72
2019-02-04T12:47:01.392Z,5.64
2019-02-04T12:48:03.153Z,5.66
2019-02-04T12:49:01.641Z,5.76
2019-02-04T12:50:01.863Z,5.69
2019-02-04T12:51:01.599Z,5.76
2019-02-04T12:52:01.606Z,5.84
2019-02-04T12:53:02.050Z,5.79
2019-02-04T12:54:01.821Z,5.91
2019-02-04T12:55:01.583Z,5.98
2019-02-04T12:56:01.592Z,5.99
2019-02-04T12:57:01.576Z,6.12
2019-02-04T12:58:01.554Z,6.05
2019-02-04T12:59:01.538Z,6.11
2019-02-04T13:00:01.322Z,6.04
2019-02-04T13:01:02.046Z,6.11
2019-02-04T13:02:01.521Z,6.17
2019-02-04T13:03:01.780Z,6.24
2019-02-04T13:04:01.506Z,6.27
2019-02-04T13:05:01.486Z,6.27
2019-02-04T13:06:01.480Z,6.36
2019-02-04T13:07:01.316Z,6.3
2019-02-04T13:08:01.982Z,6.45
2019-02-04T13:09:01.711Z,6.35
2019-02-04T13:10:01.206Z,6.46
2019-02-04T13:11:01.691Z,6.33
2019-02-04T13:12:01.461Z,6.44
2019-02-04T13:13:01.432Z,6.41
2019-02-04T13:14:01.724Z,6.31
2019-02-04T13:15:01.413Z,6.36
2019-02-04T13:16:01.497Z,6.39
2019-02-04T13:17:01.653Z,6.39
2019-02-04T13:18:01.413Z,6.39
2019-02-04T13:19:01.383Z,6.27
2019-02-04T13:20:01.673Z,6.26
2019-02-04T13:21:01.637Z,6.27